sensor_id;sensor_type;location;lat;lon;timestamp;pressure;altitude;pressure_sealevel;temperature;humidity
62031;BME280;62035;52.094;5.112;2022-10-17T00:00:18;101710.41;;;15.75;100.00
62031;BME280;62035;52.094;5.112;2022-10-17T00:02:45;101710.72;;;15.72;100.00
62031;BME280;62035;52.094;5.112;2022-10-17T00:05:14;101711.22;;;15.67;100.00
62031;BME280;62035;52.094;5.112;2022-10-17T00:07:42;101710.75;;;15.80;100.00
62031;BME280;62035;52.094;5.112;2022-10-17T00:10:09;101702.47;;;15.57;100.00
62031;BME280;62035;52.094;5.112;2022-10-17T00:12:37;101702.16;;;15.68;100.00
62031;BME280;62035;52.094;5.112;2022-10-17T00:15:06;101700.28;;;15.60;100.00
62031;BME280;62035;52.094;5.112;2022-10-17T00:17:34;101701.13;;;15.61;100.00
62031;BME280;62035;52.094;5.112;2022-10-17T00:20:04;101681.84;;;15.65;100.00
62031;BME280;62035;52.094;5.112;2022-10-17T00:22:33;101674.28;;;15.61;100.00
62031;BME280;62035;52.094;5.112;2022-10-17T00:25:01;101693.09;;;15.69;100.00
62031;BME280;62035;52.094;5.112;2022-10-17T00:27:28;101695.16;;;15.75;100.00
62031;BME280;62035;52.094;5.112;2022-10-17T00:29:56;101688.09;;;15.74;100.00
62031;BME280;62035;52.094;5.112;2022-10-17T00:32:24;101685.94;;;15.78;100.00
62031;BME280;62035;52.094;5.112;2022-10-17T00:34:52;101691.59;;;15.66;100.00
62031;BME280;62035;52.094;5.112;2022-10-17T00:37:19;101686.06;;;15.68;100.00
62031;BME280;62035;52.094;5.112;2022-10-17T00:39:48;101689.75;;;15.67;100.00
62031;BME280;62035;52.094;5.112;2022-10-17T00:42:16;101694.78;;;15.70;100.00
62031;BME280;62035;52.094;5.112;2022-10-17T00:45:04;101687.09;;;15.75;100.00
62031;BME280;62035;52.094;5.112;2022-10-17T00:47:39;101679.56;;;15.79;100.00
62031;BME280;62035;52.094;5.112;2022-10-17T00:50:10;101679.75;;;15.85;100.00
62031;BME280;62035;52.094;5.112;2022-10-17T00:52:40;101681.41;;;15.78;100.00
62031;BME280;62035;52.094;5.112;2022-10-17T00:55:13;101686.31;;;15.91;100.00
62031;BME280;62035;52.094;5.112;2022-10-17T00:57:44;101677.06;;;15.85;100.00
62031;BME280;62035;52.094;5.112;2022-10-17T01:00:13;101666.16;;;15.87;100.00
62031;BME280;62035;52.094;5.112;2022-10-17T01:02:43;101669.53;;;15.89;100.00
62031;BME280;62035;52.094;5.112;2022-10-17T01:05:11;101669.72;;;16.04;100.00
62031;BME280;62035;52.094;5.112;2022-10-17T01:07:41;101669.72;;;16.04;100.00
62031;BME280;62035;52.094;5.112;2022-10-17T01:10:12;101668.72;;;15.96;100.00
62031;BME280;62035;52.094;5.112;2022-10-17T01:12:49;101662.66;;;16.02;100.00
62031;BME280;62035;52.094;5.112;2022-10-17T01:15:34;101659.16;;;16.10;100.00
62031;BME280;62035;52.094;5.112;2022-10-17T01:18:19;101642.84;;;15.87;100.00
62031;BME280;62035;52.094;5.112;2022-10-17T01:21:20;101663.84;;;16.00;100.00
62031;BME280;62035;52.094;5.112;2022-10-17T01:27:35;101655.63;;;16.10;100.00
62031;BME280;62035;52.094;5.112;2022-10-17T01:33:47;101649.56;;;15.99;100.00
62031;BME280;62035;52.094;5.112;2022-10-17T01:36:33;101654.44;;;16.04;100.00
62031;BME280;62035;52.094;5.112;2022-10-17T01:39:12;101649.41;;;16.01;100.00
62031;BME280;62035;52.094;5.112;2022-10-17T01:41:46;101655.78;;;15.92;100.00
62031;BME280;62035;52.094;5.112;2022-10-17T01:44:20;101656.75;;;15.83;100.00
62031;BME280;62035;52.094;5.112;2022-10-17T01:46:58;101649.84;;;15.72;100.00
62031;BME280;62035;52.094;5.112;2022-10-17T01:49:32;101646.50;;;15.78;100.00
62031;BME280;62035;52.094;5.112;2022-10-17T01:52:06;101634.31;;;15.92;100.00
62031;BME280;62035;52.094;5.112;2022-10-17T01:54:39;101615.00;;;15.88;100.00
62031;BME280;62035;52.094;5.112;2022-10-17T01:57:17;101613.31;;;15.87;100.00
62031;BME280;62035;52.094;5.112;2022-10-17T01:59:51;101608.13;;;15.86;100.00
62031;BME280;62035;52.094;5.112;2022-10-17T02:02:22;101613.16;;;15.89;100.00
62031;BME280;62035;52.094;5.112;2022-10-17T02:04:54;101604.94;;;15.90;100.00
62031;BME280;62035;52.094;5.112;2022-10-17T02:07:23;101610.13;;;16.00;100.00
62031;BME280;62035;52.094;5.112;2022-10-17T02:09:50;101610.28;;;15.82;100.00
62031;BME280;62035;52.094;5.112;2022-10-17T02:12:32;101606.06;;;15.72;100.00
62031;BME280;62035;52.094;5.112;2022-10-17T02:18:46;101611.31;;;15.89;100.00
62031;BME280;62035;52.094;5.112;2022-10-17T02:21:30;101613.47;;;15.78;100.00
62031;BME280;62035;52.094;5.112;2022-10-17T02:24:14;101604.91;;;15.82;100.00
62031;BME280;62035;52.094;5.112;2022-10-17T02:26:51;101604.56;;;15.77;100.00
62031;BME280;62035;52.094;5.112;2022-10-17T02:29:28;101597.88;;;15.81;100.00
62031;BME280;62035;52.094;5.112;2022-10-17T02:32:04;101594.50;;;15.71;100.00
62031;BME280;62035;52.094;5.112;2022-10-17T02:34:37;101594.84;;;15.76;100.00
62031;BME280;62035;52.094;5.112;2022-10-17T02:37:12;101599.53;;;15.74;100.00
62031;BME280;62035;52.094;5.112;2022-10-17T02:39:43;101590.19;;;15.94;100.00
62031;BME280;62035;52.094;5.112;2022-10-17T02:42:12;101585.47;;;15.88;100.00
62031;BME280;62035;52.094;5.112;2022-10-17T02:44:42;101591.19;;;16.01;100.00
62031;BME280;62035;52.094;5.112;2022-10-17T02:47:18;101590.00;;;16.04;100.00
62031;BME280;62035;52.094;5.112;2022-10-17T02:49:54;101602.59;;;15.95;100.00
62031;BME280;62035;52.094;5.112;2022-10-17T02:52:27;101603.63;;;15.94;100.00
62031;BME280;62035;52.094;5.112;2022-10-17T02:55:05;101600.94;;;15.94;100.00
62031;BME280;62035;52.094;5.112;2022-10-17T02:57:40;101612.00;;;15.91;100.00
62031;BME280;62035;52.094;5.112;2022-10-17T03:00:13;101605.28;;;16.04;100.00
62031;BME280;62035;52.094;5.112;2022-10-17T03:02:43;101595.38;;;15.88;100.00
62031;BME280;62035;52.094;5.112;2022-10-17T03:05:18;101601.09;;;15.93;100.00
62031;BME280;62035;52.094;5.112;2022-10-17T03:07:50;101611.00;;;16.09;100.00
62031;BME280;62035;52.094;5.112;2022-10-17T03:10:18;101599.91;;;16.12;100.00
62031;BME280;62035;52.094;5.112;2022-10-17T03:12:46;101600.44;;;16.15;100.00
62031;BME280;62035;52.094;5.112;2022-10-17T03:15:14;101596.38;;;16.11;100.00
62031;BME280;62035;52.094;5.112;2022-10-17T03:17:41;101602.63;;;16.28;100.00
62031;BME280;62035;52.094;5.112;2022-10-17T03:20:09;101612.34;;;16.13;100.00
62031;BME280;62035;52.094;5.112;2022-10-17T03:22:37;101614.03;;;16.30;100.00
62031;BME280;62035;52.094;5.112;2022-10-17T03:25:07;101611.03;;;16.33;100.00
62031;BME280;62035;52.094;5.112;2022-10-17T03:27:34;101608.81;;;16.61;100.00
62031;BME280;62035;52.094;5.112;2022-10-17T03:30:02;101616.38;;;16.65;100.00
62031;BME280;62035;52.094;5.112;2022-10-17T03:32:32;101615.88;;;16.78;100.00
62031;BME280;62035;52.094;5.112;2022-10-17T03:35:00;101624.91;;;16.85;100.00
62031;BME280;62035;52.094;5.112;2022-10-17T03:37:27;101619.50;;;17.02;100.00
62031;BME280;62035;52.094;5.112;2022-10-17T03:39:55;101625.22;;;16.98;100.00
62031;BME280;62035;52.094;5.112;2022-10-17T03:42:24;101620.66;;;17.15;100.00
62031;BME280;62035;52.094;5.112;2022-10-17T03:44:52;101608.72;;;17.10;100.00
62031;BME280;62035;52.094;5.112;2022-10-17T03:47:19;101613.91;;;17.19;100.00
62031;BME280;62035;52.094;5.112;2022-10-17T03:49:47;101617.63;;;17.18;100.00
62031;BME280;62035;52.094;5.112;2022-10-17T03:52:15;101612.59;;;17.15;100.00
62031;BME280;62035;52.094;5.112;2022-10-17T03:54:42;101610.66;;;17.32;100.00
62031;BME280;62035;52.094;5.112;2022-10-17T03:57:10;101618.56;;;17.25;100.00
62031;BME280;62035;52.094;5.112;2022-10-17T03:59:39;101618.63;;;17.17;100.00
62031;BME280;62035;52.094;5.112;2022-10-17T04:02:06;101616.47;;;17.13;100.00
62031;BME280;62035;52.094;5.112;2022-10-17T04:04:34;101618.63;;;17.17;100.00
62031;BME280;62035;52.094;5.112;2022-10-17T04:07:01;101623.00;;;17.10;100.00
62031;BME280;62035;52.094;5.112;2022-10-17T04:09:29;101600.47;;;17.19;100.00
62031;BME280;62035;52.094;5.112;2022-10-17T04:11:57;101616.09;;;17.16;100.00
62031;BME280;62035;52.094;5.112;2022-10-17T04:14:24;101618.75;;;17.24;100.00
62031;BME280;62035;52.094;5.112;2022-10-17T04:16:54;101626.19;;;17.14;100.00
62031;BME280;62035;52.094;5.112;2022-10-17T04:19:21;101630.75;;;17.13;100.00
62031;BME280;62035;52.094;5.112;2022-10-17T04:21:50;101628.16;;;17.20;100.00
62031;BME280;62035;52.094;5.112;2022-10-17T04:24:18;101620.09;;;17.20;100.00
62031;BME280;62035;52.094;5.112;2022-10-17T04:26:48;101622.00;;;17.11;100.00
62031;BME280;62035;52.094;5.112;2022-10-17T04:29:16;101624.97;;;17.24;100.00
62031;BME280;62035;52.094;5.112;2022-10-17T04:31:44;101621.16;;;17.19;100.00
62031;BME280;62035;52.094;5.112;2022-10-17T04:34:14;101640.75;;;17.36;100.00
62031;BME280;62035;52.094;5.112;2022-10-17T04:36:41;101636.84;;;17.38;100.00
62031;BME280;62035;52.094;5.112;2022-10-17T04:39:09;101648.25;;;17.48;100.00
62031;BME280;62035;52.094;5.112;2022-10-17T04:41:37;101640.34;;;17.55;100.00
62031;BME280;62035;52.094;5.112;2022-10-17T04:44:04;101652.63;;;17.49;100.00
62031;BME280;62035;52.094;5.112;2022-10-17T04:46:33;101642.00;;;17.56;100.00
62031;BME280;62035;52.094;5.112;2022-10-17T04:49:01;101644.72;;;17.48;100.00
62031;BME280;62035;52.094;5.112;2022-10-17T04:51:30;101656.22;;;17.33;100.00
62031;BME280;62035;52.094;5.112;2022-10-17T04:53:58;101648.09;;;17.50;100.00
62031;BME280;62035;52.094;5.112;2022-10-17T04:56:25;101642.38;;;17.45;100.00
62031;BME280;62035;52.094;5.112;2022-10-17T04:58:53;101652.13;;;17.46;100.00
62031;BME280;62035;52.094;5.112;2022-10-17T05:01:22;101664.59;;;17.47;100.00
62031;BME280;62035;52.094;5.112;2022-10-17T05:03:49;101656.19;;;17.42;100.00
62031;BME280;62035;52.094;5.112;2022-10-17T05:06:19;101656.34;;;17.40;100.00
62031;BME280;62035;52.094;5.112;2022-10-17T05:08:49;101655.19;;;17.43;100.00
62031;BME280;62035;52.094;5.112;2022-10-17T05:11:22;101648.97;;;17.34;100.00
62031;BME280;62035;52.094;5.112;2022-10-17T05:13:51;101655.81;;;17.53;100.00
62031;BME280;62035;52.094;5.112;2022-10-17T05:16:21;101648.94;;;17.50;100.00
62031;BME280;62035;52.094;5.112;2022-10-17T05:18:50;101650.53;;;17.59;100.00
62031;BME280;62035;52.094;5.112;2022-10-17T05:21:19;101642.38;;;17.45;100.00
62031;BME280;62035;52.094;5.112;2022-10-17T05:23:50;101645.06;;;17.53;100.00
62031;BME280;62035;52.094;5.112;2022-10-17T05:26:19;101650.03;;;17.64;100.00
62031;BME280;62035;52.094;5.112;2022-10-17T05:28:47;101662.31;;;17.66;100.00
62031;BME280;62035;52.094;5.112;2022-10-17T05:31:17;101669.38;;;17.59;100.00
62031;BME280;62035;52.094;5.112;2022-10-17T05:33:45;101673.31;;;17.49;100.00
62031;BME280;62035;52.094;5.112;2022-10-17T05:36:13;101685.06;;;17.56;100.00
62031;BME280;62035;52.094;5.112;2022-10-17T05:38:40;101681.72;;;17.54;100.00
62031;BME280;62035;52.094;5.112;2022-10-17T05:41:09;101684.41;;;17.54;100.00
62031;BME280;62035;52.094;5.112;2022-10-17T05:43:37;101673.81;;;17.52;100.00
62031;BME280;62035;52.094;5.112;2022-10-17T05:46:05;101669.59;;;17.58;100.00
62031;BME280;62035;52.094;5.112;2022-10-17T05:48:33;101658.63;;;17.67;100.00
62031;BME280;62035;52.094;5.112;2022-10-17T05:51:04;101662.81;;;17.62;100.00
62031;BME280;62035;52.094;5.112;2022-10-17T05:53:35;101656.41;;;17.71;100.00
62031;BME280;62035;52.094;5.112;2022-10-17T05:56:05;101658.19;;;17.48;100.00
62031;BME280;62035;52.094;5.112;2022-10-17T05:58:39;101664.06;;;17.51;100.00
62031;BME280;62035;52.094;5.112;2022-10-17T06:01:09;101668.19;;;17.62;100.00
62031;BME280;62035;52.094;5.112;2022-10-17T06:03:37;101674.06;;;17.74;100.00
62031;BME280;62035;52.094;5.112;2022-10-17T06:06:06;101673.25;;;17.65;100.00
62031;BME280;62035;52.094;5.112;2022-10-17T06:08:35;101677.78;;;17.64;100.00
62031;BME280;62035;52.094;5.112;2022-10-17T06:11:03;101674.59;;;17.61;100.00
62031;BME280;62035;52.094;5.112;2022-10-17T06:13:31;101671.28;;;17.51;100.00
62031;BME280;62035;52.094;5.112;2022-10-17T06:16:00;101676.22;;;17.39;100.00
62031;BME280;62035;52.094;5.112;2022-10-17T06:18:27;101679.19;;;17.52;100.00
62031;BME280;62035;52.094;5.112;2022-10-17T06:21:01;101676.34;;;17.46;100.00
62031;BME280;62035;52.094;5.112;2022-10-17T06:23:29;101694.44;;;17.60;100.00
62031;BME280;62035;52.094;5.112;2022-10-17T06:25:58;101686.94;;;17.47;100.00
62031;BME280;62035;52.094;5.112;2022-10-17T06:28:26;101697.38;;;17.50;100.00
62031;BME280;62035;52.094;5.112;2022-10-17T06:30:54;101708.50;;;17.86;100.00
62031;BME280;62035;52.094;5.112;2022-10-17T06:33:23;101699.50;;;17.71;100.00
62031;BME280;62035;52.094;5.112;2022-10-17T06:35:51;101690.13;;;17.59;100.00
62031;BME280;62035;52.094;5.112;2022-10-17T06:38:19;101698.44;;;17.80;100.00
62031;BME280;62035;52.094;5.112;2022-10-17T06:40:46;101710.94;;;18.04;100.00
62031;BME280;62035;52.094;5.112;2022-10-17T06:43:14;101711.22;;;17.86;100.00
62031;BME280;62035;52.094;5.112;2022-10-17T06:45:41;101722.91;;;18.02;100.00
62031;BME280;62035;52.094;5.112;2022-10-17T06:48:11;101719.28;;;17.86;100.00
62031;BME280;62035;52.094;5.112;2022-10-17T06:50:40;101732.44;;;17.81;100.00
62031;BME280;62035;52.094;5.112;2022-10-17T06:53:08;101730.63;;;18.05;100.00
62031;BME280;62035;52.094;5.112;2022-10-17T06:55:35;101733.16;;;18.06;100.00
62031;BME280;62035;52.094;5.112;2022-10-17T06:58:03;101737.81;;;18.12;100.00
62031;BME280;62035;52.094;5.112;2022-10-17T07:00:30;101723.63;;;17.95;100.00
62031;BME280;62035;52.094;5.112;2022-10-17T07:02:58;101745.97;;;18.35;100.00
62031;BME280;62035;52.094;5.112;2022-10-17T07:05:26;101727.63;;;18.30;100.00
62031;BME280;62035;52.094;5.112;2022-10-17T07:07:55;101739.38;;;18.38;100.00
62031;BME280;62035;52.094;5.112;2022-10-17T07:10:22;101739.56;;;18.36;100.00
62031;BME280;62035;52.094;5.112;2022-10-17T07:12:50;101745.03;;;18.43;100.00
62031;BME280;62035;52.094;5.112;2022-10-17T07:15:17;101745.84;;;18.51;100.00
62031;BME280;62035;52.094;5.112;2022-10-17T07:17:47;101738.09;;;18.48;100.00
62031;BME280;62035;52.094;5.112;2022-10-17T07:20:15;101745.34;;;18.48;100.00
62031;BME280;62035;52.094;5.112;2022-10-17T07:22:43;101749.91;;;18.47;100.00
62031;BME280;62035;52.094;5.112;2022-10-17T07:25:12;101749.53;;;18.50;100.00
62031;BME280;62035;52.094;5.112;2022-10-17T07:27:39;101751.50;;;18.64;100.00
62031;BME280;62035;52.094;5.112;2022-10-17T07:30:08;101753.25;;;18.49;100.00
62031;BME280;62035;52.094;5.112;2022-10-17T07:32:36;101771.78;;;18.52;100.00
62031;BME280;62035;52.094;5.112;2022-10-17T07:35:04;101785.19;;;18.69;100.00
62031;BME280;62035;52.094;5.112;2022-10-17T07:37:32;101786.75;;;18.55;100.00
62031;BME280;62035;52.094;5.112;2022-10-17T07:40:00;101788.44;;;18.56;100.00
62031;BME280;62035;52.094;5.112;2022-10-17T07:42:29;101798.72;;;18.60;100.00
62031;BME280;62035;52.094;5.112;2022-10-17T07:44:56;101818.03;;;18.72;100.00
62031;BME280;62035;52.094;5.112;2022-10-17T07:47:24;101844.03;;;18.57;100.00
62031;BME280;62035;52.094;5.112;2022-10-17T07:49:52;101862.19;;;18.71;100.00
62031;BME280;62035;52.094;5.112;2022-10-17T07:52:19;101866.25;;;18.67;100.00
62031;BME280;62035;52.094;5.112;2022-10-17T07:54:47;101887.59;;;18.77;100.00
62031;BME280;62035;52.094;5.112;2022-10-17T07:57:14;101902.66;;;18.63;100.00
62031;BME280;62035;52.094;5.112;2022-10-17T07:59:43;101910.28;;;18.43;100.00
62031;BME280;62035;52.094;5.112;2022-10-17T08:02:19;101936.88;;;18.54;100.00
62031;BME280;62035;52.094;5.112;2022-10-17T08:04:49;101927.22;;;18.29;100.00
62031;BME280;62035;52.094;5.112;2022-10-17T08:07:16;101942.47;;;18.45;100.00
62031;BME280;62035;52.094;5.112;2022-10-17T08:09:45;101949.53;;;18.46;100.00
62031;BME280;62035;52.094;5.112;2022-10-17T08:12:13;101955.28;;;18.43;100.00
62031;BME280;62035;52.094;5.112;2022-10-17T08:14:41;101947.59;;;18.23;100.00
62031;BME280;62035;52.094;5.112;2022-10-17T08:17:11;101934.66;;;18.11;100.00
62031;BME280;62035;52.094;5.112;2022-10-17T08:19:38;101930.94;;;18.20;100.00
62031;BME280;62035;52.094;5.112;2022-10-17T08:22:07;101903.00;;;18.13;100.00
62031;BME280;62035;52.094;5.112;2022-10-17T08:24:34;101915.41;;;18.30;100.00
62031;BME280;62035;52.094;5.112;2022-10-17T08:27:02;101906.31;;;18.31;100.00
62031;BME280;62035;52.094;5.112;2022-10-17T08:29:36;101919.31;;;18.27;100.00
62031;BME280;62035;52.094;5.112;2022-10-17T08:32:04;101942.72;;;18.27;100.00
62031;BME280;62035;52.094;5.112;2022-10-17T08:34:35;101948.97;;;18.11;100.00
62031;BME280;62035;52.094;5.112;2022-10-17T08:37:03;101959.56;;;18.21;100.00
62031;BME280;62035;52.094;5.112;2022-10-17T08:39:30;101963.44;;;18.26;100.00
62031;BME280;62035;52.094;5.112;2022-10-17T08:42:04;101962.59;;;18.26;100.00
62031;BME280;62035;52.094;5.112;2022-10-17T08:44:58;101969.59;;;18.43;100.00
62031;BME280;62035;52.094;5.112;2022-10-17T08:47:39;101963.72;;;18.40;100.00
62031;BME280;62035;52.094;5.112;2022-10-17T08:50:20;101950.44;;;18.30;100.00
62031;BME280;62035;52.094;5.112;2022-10-17T08:52:57;101942.56;;;18.20;100.00
62031;BME280;62035;52.094;5.112;2022-10-17T08:55:33;101929.91;;;18.29;100.00
62031;BME280;62035;52.094;5.112;2022-10-17T08:58:11;101921.91;;;18.44;100.00
62031;BME280;62035;52.094;5.112;2022-10-17T09:00:44;101917.25;;;18.38;100.00
62031;BME280;62035;52.094;5.112;2022-10-17T09:03:30;101895.53;;;18.39;100.00
62031;BME280;62035;52.094;5.112;2022-10-17T09:06:30;101902.88;;;18.45;100.00
62031;BME280;62035;52.094;5.112;2022-10-17T09:09:14;101904.19;;;18.65;100.00
62031;BME280;62035;52.094;5.112;2022-10-17T09:12:02;101921.00;;;18.76;100.00
62031;BME280;62035;52.094;5.112;2022-10-17T09:14:52;101938.13;;;18.83;100.00
62031;BME280;62035;52.094;5.112;2022-10-17T09:17:37;101972.22;;;19.07;100.00
62031;BME280;62035;52.094;5.112;2022-10-17T09:20:18;101975.34;;;18.87;100.00
62031;BME280;62035;52.094;5.112;2022-10-17T09:22:54;101980.81;;;18.79;100.00
62031;BME280;62035;52.094;5.112;2022-10-17T09:25:25;102000.56;;;18.72;100.00
62031;BME280;62035;52.094;5.112;2022-10-17T09:28:01;101989.25;;;18.76;100.00
62031;BME280;62035;52.094;5.112;2022-10-17T09:30:41;101958.50;;;18.85;100.00
62031;BME280;62035;52.094;5.112;2022-10-17T09:33:11;101946.56;;;18.80;100.00
62031;BME280;62035;52.094;5.112;2022-10-17T09:35:42;101948.25;;;18.81;100.00
62031;BME280;62035;52.094;5.112;2022-10-17T09:38:16;101946.28;;;18.75;100.00
62031;BME280;62035;52.094;5.112;2022-10-17T09:40:50;101916.69;;;18.50;100.00
62031;BME280;62035;52.094;5.112;2022-10-17T09:43:21;101934.97;;;18.79;100.00
62031;BME280;62035;52.094;5.112;2022-10-17T09:45:58;101940.78;;;18.91;100.00
62031;BME280;62035;52.094;5.112;2022-10-17T09:48:36;101945.25;;;19.07;100.00
62031;BME280;62035;52.094;5.112;2022-10-17T09:51:08;101946.84;;;18.93;100.00
62031;BME280;62035;52.094;5.112;2022-10-17T09:53:39;101960.25;;;19.09;100.00
62031;BME280;62035;52.094;5.112;2022-10-17T09:56:13;101969.75;;;18.97;100.00
62031;BME280;62035;52.094;5.112;2022-10-17T09:58:44;101981.22;;;19.22;100.00
62031;BME280;62035;52.094;5.112;2022-10-17T10:01:18;101979.94;;;19.18;100.00
62031;BME280;62035;52.094;5.112;2022-10-17T10:04:07;101983.16;;;19.13;100.00
62031;BME280;62035;52.094;5.112;2022-10-17T10:06:36;102006.06;;;19.17;100.00
62031;BME280;62035;52.094;5.112;2022-10-17T10:09:20;102022.25;;;19.17;100.00
62031;BME280;62035;52.094;5.112;2022-10-17T10:11:53;102020.31;;;19.03;100.00
62031;BME280;62035;52.094;5.112;2022-10-17T10:14:23;102026.41;;;18.97;100.00
62031;BME280;62035;52.094;5.112;2022-10-17T10:16:55;102047.47;;;19.32;100.00
62031;BME280;62035;52.094;5.112;2022-10-17T10:19:28;102050.69;;;18.97;100.00
62031;BME280;62035;52.094;5.112;2022-10-17T10:21:58;102051.03;;;18.86;100.00
62031;BME280;62035;52.094;5.112;2022-10-17T10:24:29;102056.09;;;18.89;100.00
62031;BME280;62035;52.094;5.112;2022-10-17T10:26:59;102065.78;;;18.75;100.00
62031;BME280;62035;52.094;5.112;2022-10-17T10:29:29;102065.72;;;18.83;100.00
62031;BME280;62035;52.094;5.112;2022-10-17T10:32:10;102062.25;;;18.67;100.00
62031;BME280;62035;52.094;5.112;2022-10-17T10:34:46;102067.72;;;18.89;100.00
62031;BME280;62035;52.094;5.112;2022-10-17T10:37:19;102063.50;;;18.95;100.00
62031;BME280;62035;52.094;5.112;2022-10-17T10:39:51;102073.41;;;19.03;100.00
62031;BME280;62035;52.094;5.112;2022-10-17T10:42:24;102071.56;;;19.03;100.00
62031;BME280;62035;52.094;5.112;2022-10-17T10:44:56;102056.06;;;18.97;100.00
62031;BME280;62035;52.094;5.112;2022-10-17T10:47:28;102082.19;;;19.05;100.00
62031;BME280;62035;52.094;5.112;2022-10-17T10:50:16;102082.53;;;19.02;100.00
62031;BME280;62035;52.094;5.112;2022-10-17T10:52:56;102095.94;;;18.79;100.00
62031;BME280;62035;52.094;5.112;2022-10-17T10:55:42;102101.34;;;18.71;100.00
62031;BME280;62035;52.094;5.112;2022-10-17T10:58:25;102098.66;;;18.71;100.00
62031;BME280;62035;52.094;5.112;2022-10-17T11:01:04;102104.72;;;18.64;100.00
62031;BME280;62035;52.094;5.112;2022-10-17T11:03:40;102107.75;;;18.61;100.00
62031;BME280;62035;52.094;5.112;2022-10-17T11:06:22;102080.09;;;18.51;100.00
62031;BME280;62035;52.094;5.112;2022-10-17T11:09:05;102096.78;;;18.79;100.00
62031;BME280;62035;52.094;5.112;2022-10-17T11:11:44;102105.31;;;18.91;100.00
62031;BME280;62035;52.094;5.112;2022-10-17T11:14:18;102100.66;;;18.77;100.00
62031;BME280;62035;52.094;5.112;2022-10-17T11:16:55;102115.94;;;18.84;100.00
62031;BME280;62035;52.094;5.112;2022-10-17T11:19:36;102116.25;;;19.06;100.00
62031;BME280;62035;52.094;5.112;2022-10-17T11:22:14;102124.69;;;18.94;100.00
62031;BME280;62035;52.094;5.112;2022-10-17T11:24:49;102125.00;;;19.08;100.00
62031;BME280;62035;52.094;5.112;2022-10-17T11:27:24;102125.81;;;19.16;100.00
62031;BME280;62035;52.094;5.112;2022-10-17T11:29:54;102115.41;;;19.05;100.00
62031;BME280;62035;52.094;5.112;2022-10-17T11:32:26;102140.72;;;18.96;100.00
62031;BME280;62035;52.094;5.112;2022-10-17T11:35:01;102151.38;;;18.81;100.00
62031;BME280;62035;52.094;5.112;2022-10-17T11:37:35;102147.97;;;18.87;100.00
62031;BME280;62035;52.094;5.112;2022-10-17T11:40:13;102151.00;;;18.92;100.00
62031;BME280;62035;52.094;5.112;2022-10-17T11:42:52;102150.53;;;18.81;100.00
62031;BME280;62035;52.094;5.112;2022-10-17T11:45:27;102152.41;;;18.72;100.00
62031;BME280;62035;52.094;5.112;2022-10-17T11:47:59;102149.53;;;18.74;100.00
62031;BME280;62035;52.094;5.112;2022-10-17T11:50:33;102154.94;;;18.74;100.00
62031;BME280;62035;52.094;5.112;2022-10-17T11:53:08;102164.22;;;18.79;100.00
62031;BME280;62035;52.094;5.112;2022-10-17T11:55:40;102157.59;;;18.49;100.00
62031;BME280;62035;52.094;5.112;2022-10-17T11:58:24;102163.16;;;18.40;100.00
62031;BME280;62035;52.094;5.112;2022-10-17T12:01:08;102168.22;;;18.59;100.00
62031;BME280;62035;52.094;5.112;2022-10-17T12:04:01;102163.00;;;18.49;100.00
62031;BME280;62035;52.094;5.112;2022-10-17T12:06:51;102161.31;;;18.48;100.00
62031;BME280;62035;52.094;5.112;2022-10-17T12:09:33;102138.94;;;18.64;100.00
62031;BME280;62035;52.094;5.112;2022-10-17T12:12:07;102166.06;;;18.79;100.00
62031;BME280;62035;52.094;5.112;2022-10-17T12:14:43;102157.13;;;18.78;100.00
62031;BME280;62035;52.094;5.112;2022-10-17T12:17:29;102167.06;;;18.78;100.00
62031;BME280;62035;52.094;5.112;2022-10-17T12:20:25;102172.81;;;18.75;100.00
62031;BME280;62035;52.094;5.112;2022-10-17T12:22:58;102175.00;;;18.71;100.00
62031;BME280;62035;52.094;5.112;2022-10-17T12:25:32;102173.78;;;18.57;100.00
62031;BME280;62035;52.094;5.112;2022-10-17T12:28:13;102172.31;;;18.71;100.00
62031;BME280;62035;52.094;5.112;2022-10-17T12:30:54;102173.13;;;18.55;100.00
62031;BME280;62035;52.094;5.112;2022-10-17T12:33:30;102179.84;;;18.59;100.00
62031;BME280;62035;52.094;5.112;2022-10-17T12:42:31;102189.47;;;18.29;100.00
62031;BME280;62035;52.094;5.112;2022-10-17T12:45:43;102196.69;;;18.21;100.00
62031;BME280;62035;52.094;5.112;2022-10-17T12:55:12;102207.25;;;18.06;100.00
62031;BME280;62035;52.094;5.112;2022-10-17T12:57:54;102222.28;;;18.25;100.00
62031;BME280;62035;52.094;5.112;2022-10-17T13:00:30;102209.66;;;18.42;100.00
62031;BME280;62035;52.094;5.112;2022-10-17T13:03:04;102199.88;;;18.41;100.00
62031;BME280;62035;52.094;5.112;2022-10-17T13:05:40;102197.69;;;18.44;100.00
62031;BME280;62035;52.094;5.112;2022-10-17T13:08:17;102208.72;;;18.75;100.00
62031;BME280;62035;52.094;5.112;2022-10-17T13:10:50;102207.31;;;18.87;100.00
62031;BME280;62035;52.094;5.112;2022-10-17T13:13:21;102212.69;;;19.12;100.00
62031;BME280;62035;52.094;5.112;2022-10-17T13:15:53;102217.19;;;19.27;100.00
62031;BME280;62035;52.094;5.112;2022-10-17T13:18:23;102219.56;;;19.30;100.00
62031;BME280;62035;52.094;5.112;2022-10-17T13:20:57;102216.84;;;19.30;100.00
62031;BME280;62035;52.094;5.112;2022-10-17T13:23:30;102209.06;;;19.44;100.00
62031;BME280;62035;52.094;5.112;2022-10-17T13:26:05;102231.16;;;19.55;100.00
62031;BME280;62035;52.094;5.112;2022-10-17T13:28:39;102222.22;;;19.47;100.00
62031;BME280;62035;52.094;5.112;2022-10-17T13:31:12;102240.69;;;19.74;100.00